KCVO/CVO METAR and TAF weather

Enter ICAO airport designator
Station Type Date Time Source
KCVO METAR 2019/10/16 21:11 UTC NOAA

KCVO 162111Z AUTO 12004KT 10SM OVC029 13/12 A2980 RMK AO2


Station Type Date Time Source
KCVO Decoded METAR 2019/10/16 21:11 UTC NOAA

Corvallis, Corvallis Municipal Airport, OR, United States (KCVO) 44-30N 123-17W
Oct 16, 2019 - 05:11 PM EDT / 2019.10.16 2111 UTC
Wind: from the ESE (120 degrees) at 5 MPH (4 KT):0
Visibility: 10 mile(s):0
Sky conditions: overcast
Temperature: 55 F (13 C)
Dew Point: 53 F (12 C)
Relative Humidity: 93%
Pressure (altimeter): 29.8 in. Hg (1009 hPa)
ob: KCVO 162111Z AUTO 12004KT 10SM OVC029 13/12 A2980 RMK AO2
cycle: 21

Station Type Date Time Source
KCVO TAF UTC NOAA

Error!

Example: see airport list